Terminal Aerodrome Forecast
Issued by NWS Pittsburgh, PA

Current Version | Previous Version | Graphics & Text | Print | Product List | Glossary On
Versions: 1 2 3 4 5 6 7 8 9 10 11 12 13 14 15 16 17 18 19 20 21 22 23 24 25 26 27 28 29 30 31 32
740
FTUS41 KPBZ 180511 AAD
TAFPIT
TAF AMD
KPIT 180511Z 1805/1906 20005KT 6SM -SN OVC035
      TEMPO 1805/1807 3SM -SN OVC008
     FM180700 26008KT 6SM -SN OVC008
     FM180900 26007KT 6SM -SN OVC015
     FM181400 30008KT P6SM OVC025
     FM181800 21005KT P6SM SCT035=

USA.gov is the U.S. government's official web portal to all federal, state and local government web resources and services.